sensor_id;sensor_type;location;lat;lon;timestamp;pressure;altitude;pressure_sealevel;temperature;humidity
78206;BME280;67480;48.920;12.880;2023-11-19T00:02:06;97205.44;;;2.19;73.91
78206;BME280;67480;48.920;12.880;2023-11-19T00:05:01;97198.81;;;2.16;73.76
78206;BME280;67480;48.920;12.880;2023-11-19T00:08:04;97195.25;;;2.17;73.51
78206;BME280;67480;48.920;12.880;2023-11-19T00:10:41;97175.44;;;2.16;73.26
78206;BME280;67480;48.920;12.880;2023-11-19T00:14:00;97186.47;;;2.18;73.21
78206;BME280;67480;48.920;12.880;2023-11-19T00:24:19;97170.88;;;2.18;73.45
78206;BME280;67480;48.920;12.880;2023-11-19T00:27:50;97162.44;;;2.16;73.58
78206;BME280;67480;48.920;12.880;2023-11-19T00:34:19;97143.28;;;2.17;73.13
78206;BME280;67480;48.920;12.880;2023-11-19T00:38:16;97128.59;;;2.10;73.37
78206;BME280;67480;48.920;12.880;2023-11-19T01:05:12;97087.13;;;2.02;73.81
78206;BME280;67480;48.920;12.880;2023-11-19T01:11:46;97087.91;;;2.02;73.65
78206;BME280;67480;48.920;12.880;2023-11-19T01:14:41;97085.69;;;1.99;73.64
78206;BME280;67480;48.920;12.880;2023-11-19T01:17:19;97091.50;;;2.01;73.60
78206;BME280;67480;48.920;12.880;2023-11-19T01:21:03;97089.63;;;2.10;73.37
78206;BME280;67480;48.920;12.880;2023-11-19T01:23:32;97087.56;;;2.05;73.56
78206;BME280;67480;48.920;12.880;2023-11-19T01:30:20;97073.25;;;2.09;73.76
78206;BME280;67480;48.920;12.880;2023-11-19T01:33:16;97086.47;;;2.14;73.75
78206;BME280;67480;48.920;12.880;2023-11-19T01:36:40;97071.25;;;2.11;73.45
78206;BME280;67480;48.920;12.880;2023-11-19T01:43:34;97078.06;;;2.12;73.56
78206;BME280;67480;48.920;12.880;2023-11-19T01:47:08;97066.41;;;2.08;74.09
78206;BME280;67480;48.920;12.880;2023-11-19T01:50:35;97058.00;;;2.06;73.63
78206;BME280;67480;48.920;12.880;2023-11-19T01:53:06;97040.81;;;2.05;73.94
78206;BME280;67480;48.920;12.880;2023-11-19T01:56:11;97047.88;;;2.11;73.83
78206;BME280;67480;48.920;12.880;2023-11-19T02:02:24;97042.56;;;2.19;73.57
78206;BME280;67480;48.920;12.880;2023-11-19T02:13:03;97034.50;;;2.14;73.64
78206;BME280;67480;48.920;12.880;2023-11-19T02:16:32;97034.59;;;2.21;73.95
78206;BME280;67480;48.920;12.880;2023-11-19T02:19:25;97023.50;;;2.12;74.02
78206;BME280;67480;48.920;12.880;2023-11-19T02:22:58;97033.81;;;2.20;73.81
78206;BME280;67480;48.920;12.880;2023-11-19T02:29:52;97015.25;;;2.24;73.64
78206;BME280;67480;48.920;12.880;2023-11-19T02:40:20;97007.47;;;2.24;74.16
78206;BME280;67480;48.920;12.880;2023-11-19T02:50:52;96998.66;;;2.25;74.22
78206;BME280;67480;48.920;12.880;2023-11-19T02:54:24;96983.06;;;2.25;73.97
78206;BME280;67480;48.920;12.880;2023-11-19T02:57:56;96973.69;;;2.24;74.38
78206;BME280;67480;48.920;12.880;2023-11-19T03:01:24;96949.03;;;2.19;73.79
78206;BME280;67480;48.920;12.880;2023-11-19T03:04:43;96946.44;;;2.19;73.83
78206;BME280;67480;48.920;12.880;2023-11-19T03:07:37;96940.16;;;2.29;73.93
78206;BME280;67480;48.920;12.880;2023-11-19T03:10:27;96929.69;;;2.22;74.11
78206;BME280;67480;48.920;12.880;2023-11-19T03:13:47;96925.91;;;2.25;74.24
78206;BME280;67480;48.920;12.880;2023-11-19T03:17:08;96913.13;;;2.23;73.79
78206;BME280;67480;48.920;12.880;2023-11-19T03:20:46;96907.09;;;2.22;73.78
78206;BME280;67480;48.920;12.880;2023-11-19T03:24:08;96915.09;;;2.21;74.41
78206;BME280;67480;48.920;12.880;2023-11-19T03:27:36;96925.91;;;2.25;74.09
78206;BME280;67480;48.920;12.880;2023-11-19T03:34:46;96908.72;;;2.24;73.86
78206;BME280;67480;48.920;12.880;2023-11-19T03:38:18;96918.75;;;2.27;74.02
78206;BME280;67480;48.920;12.880;2023-11-19T03:41:47;96915.13;;;2.28;74.20
78206;BME280;67480;48.920;12.880;2023-11-19T03:52:02;96931.38;;;2.30;73.74
78206;BME280;67480;48.920;12.880;2023-11-19T03:55:33;96924.38;;;2.30;73.89
78206;BME280;67480;48.920;12.880;2023-11-19T03:58:39;96939.78;;;2.32;73.89
78206;BME280;67480;48.920;12.880;2023-11-19T04:05:54;96905.13;;;2.25;74.30
78206;BME280;67480;48.920;12.880;2023-11-19T04:13:01;96900.81;;;2.32;73.96
78206;BME280;67480;48.920;12.880;2023-11-19T04:16:40;96879.19;;;2.31;74.37
78206;BME280;67480;48.920;12.880;2023-11-19T04:19:37;96883.34;;;2.26;73.96
78206;BME280;67480;48.920;12.880;2023-11-19T04:22:09;96886.75;;;2.26;74.33
78206;BME280;67480;48.920;12.880;2023-11-19T04:28:33;96877.22;;;2.33;74.35
78206;BME280;67480;48.920;12.880;2023-11-19T04:35:30;96865.59;;;2.29;74.24
78206;BME280;67480;48.920;12.880;2023-11-19T04:45:32;96879.81;;;2.33;73.75
78206;BME280;67480;48.920;12.880;2023-11-19T04:58:04;96858.28;;;2.39;74.26
78206;BME280;67480;48.920;12.880;2023-11-19T05:01:14;96852.53;;;2.44;74.56
78206;BME280;67480;48.920;12.880;2023-11-19T05:04:04;96849.53;;;2.47;74.49
78206;BME280;67480;48.920;12.880;2023-11-19T05:07:29;96848.53;;;2.48;74.45
78206;BME280;67480;48.920;12.880;2023-11-19T05:10:37;96845.53;;;2.44;74.21
78206;BME280;67480;48.920;12.880;2023-11-19T05:17:26;96820.13;;;2.40;74.19
78206;BME280;67480;48.920;12.880;2023-11-19T05:30:28;96833.94;;;2.47;74.62
78206;BME280;67480;48.920;12.880;2023-11-19T05:37:42;96814.41;;;2.51;74.64
78206;BME280;67480;48.920;12.880;2023-11-19T05:41:27;96817.78;;;2.52;74.52
78206;BME280;67480;48.920;12.880;2023-11-19T05:44:04;96795.97;;;2.46;74.54
78206;BME280;67480;48.920;12.880;2023-11-19T05:47:02;96802.00;;;2.53;74.47
78206;BME280;67480;48.920;12.880;2023-11-19T05:59:57;96814.22;;;2.59;74.61
78206;BME280;67480;48.920;12.880;2023-11-19T06:02:47;96831.03;;;2.57;74.92
78206;BME280;67480;48.920;12.880;2023-11-19T06:17:01;96848.88;;;2.66;75.23
78206;BME280;67480;48.920;12.880;2023-11-19T06:19:55;96842.25;;;2.64;75.08
78206;BME280;67480;48.920;12.880;2023-11-19T06:23:45;96846.66;;;2.63;75.06
78206;BME280;67480;48.920;12.880;2023-11-19T06:26:55;96852.28;;;2.67;75.16
78206;BME280;67480;48.920;12.880;2023-11-19T06:30:02;96836.66;;;2.60;74.99
78206;BME280;67480;48.920;12.880;2023-11-19T06:33:27;96838.66;;;2.65;75.32
78206;BME280;67480;48.920;12.880;2023-11-19T06:36:54;96847.50;;;2.71;75.41
78206;BME280;67480;48.920;12.880;2023-11-19T06:40:34;96844.31;;;2.69;75.69
78206;BME280;67480;48.920;12.880;2023-11-19T06:47:29;96835.91;;;2.73;75.38
78206;BME280;67480;48.920;12.880;2023-11-19T06:51:16;96844.09;;;2.70;75.79
78206;BME280;67480;48.920;12.880;2023-11-19T06:55:04;96850.34;;;2.76;75.48
78206;BME280;67480;48.920;12.880;2023-11-19T06:58:35;96851.72;;;2.72;75.75
78206;BME280;67480;48.920;12.880;2023-11-19T07:05:52;96845.13;;;2.76;75.47
78206;BME280;67480;48.920;12.880;2023-11-19T07:19:03;96839.94;;;2.76;76.02
78206;BME280;67480;48.920;12.880;2023-11-19T07:21:53;96844.34;;;2.75;76.16
78206;BME280;67480;48.920;12.880;2023-11-19T07:25:00;96841.94;;;2.74;75.51
78206;BME280;67480;48.920;12.880;2023-11-19T07:28:13;96831.91;;;2.71;75.79
78206;BME280;67480;48.920;12.880;2023-11-19T07:31:21;96833.69;;;2.70;75.67
78206;BME280;67480;48.920;12.880;2023-11-19T07:34:14;96837.94;;;2.78;75.43
78206;BME280;67480;48.920;12.880;2023-11-19T07:37:09;96831.91;;;2.71;76.07
78206;BME280;67480;48.920;12.880;2023-11-19T07:39:39;96830.72;;;2.73;75.61
78206;BME280;67480;48.920;12.880;2023-11-19T07:42:42;96834.13;;;2.74;75.83
78206;BME280;67480;48.920;12.880;2023-11-19T07:46:23;96837.56;;;2.81;75.52
78206;BME280;67480;48.920;12.880;2023-11-19T07:49:39;96833.56;;;2.78;75.67
78206;BME280;67480;48.920;12.880;2023-11-19T07:52:26;96838.97;;;2.77;76.05
78206;BME280;67480;48.920;12.880;2023-11-19T07:55:36;96844.38;;;2.82;75.53
78206;BME280;67480;48.920;12.880;2023-11-19T07:58:31;96835.97;;;2.80;76.18
78206;BME280;67480;48.920;12.880;2023-11-19T08:01:55;96845.59;;;2.86;76.06
78206;BME280;67480;48.920;12.880;2023-11-19T08:04:42;96841.16;;;2.80;76.10
78206;BME280;67480;48.920;12.880;2023-11-19T08:07:13;96835.97;;;2.80;75.79
78206;BME280;67480;48.920;12.880;2023-11-19T08:10:14;96839.78;;;2.84;76.12
78206;BME280;67480;48.920;12.880;2023-11-19T08:12:55;96837.19;;;2.84;76.27
78206;BME280;67480;48.920;12.880;2023-11-19T08:15:36;96837.19;;;2.84;75.89
78206;BME280;67480;48.920;12.880;2023-11-19T08:18:35;96841.22;;;2.93;76.18
78206;BME280;67480;48.920;12.880;2023-11-19T08:21:09;96833.56;;;2.85;75.91
78206;BME280;67480;48.920;12.880;2023-11-19T08:27:08;96830.97;;;2.85;76.19
78206;BME280;67480;48.920;12.880;2023-11-19T08:30:10;96831.22;;;2.90;75.86
78206;BME280;67480;48.920;12.880;2023-11-19T08:33:32;96823.47;;;2.97;75.82
78206;BME280;67480;48.920;12.880;2023-11-19T08:43:36;96821.66;;;2.97;75.52
78206;BME280;67480;48.920;12.880;2023-11-19T08:46:49;96827.84;;;2.96;75.97
78206;BME280;67480;48.920;12.880;2023-11-19T08:49:45;96824.66;;;2.94;75.74
78206;BME280;67480;48.920;12.880;2023-11-19T08:52:35;96814.41;;;2.93;76.04
78206;BME280;67480;48.920;12.880;2023-11-19T08:55:23;96829.25;;;2.99;76.10
78206;BME280;67480;48.920;12.880;2023-11-19T08:57:58;96825.25;;;2.96;76.18
78206;BME280;67480;48.920;12.880;2023-11-19T09:00:34;96820.88;;;2.97;76.05
78206;BME280;67480;48.920;12.880;2023-11-19T09:03:00;96819.06;;;2.97;76.16
78206;BME280;67480;48.920;12.880;2023-11-19T09:09:31;96825.31;;;3.09;76.01
78206;BME280;67480;48.920;12.880;2023-11-19T09:16:12;96822.09;;;3.07;76.00
78206;BME280;67480;48.920;12.880;2023-11-19T09:40:23;96812.75;;;3.20;76.18
78206;BME280;67480;48.920;12.880;2023-11-19T09:57:23;96796.59;;;3.31;75.73
78206;BME280;67480;48.920;12.880;2023-11-19T10:00:53;96794.59;;;3.33;76.08
78206;BME280;67480;48.920;12.880;2023-11-19T10:04:04;96787.78;;;3.32;75.63
78206;BME280;67480;48.920;12.880;2023-11-19T10:06:46;96772.94;;;3.26;75.70
78206;BME280;67480;48.920;12.880;2023-11-19T10:13:00;96781.38;;;3.34;74.97
78206;BME280;67480;48.920;12.880;2023-11-19T10:15:26;96801.63;;;3.39;74.39
78206;BME280;67480;48.920;12.880;2023-11-19T10:17:56;96796.66;;;3.44;73.88
78206;BME280;67480;48.920;12.880;2023-11-19T10:20:22;96789.44;;;3.46;73.66
78206;BME280;67480;48.920;12.880;2023-11-19T10:22:48;96785.84;;;3.47;74.13
78206;BME280;67480;48.920;12.880;2023-11-19T10:25:27;96784.66;;;3.50;74.17
78206;BME280;67480;48.920;12.880;2023-11-19T10:27:53;96783.03;;;3.49;73.52
78206;BME280;67480;48.920;12.880;2023-11-19T10:30:27;96773.03;;;3.52;73.69
78206;BME280;67480;48.920;12.880;2023-11-19T10:33:11;96772.84;;;3.54;73.69
78206;BME280;67480;48.920;12.880;2023-11-19T10:35:52;96775.06;;;3.50;73.79
78206;BME280;67480;48.920;12.880;2023-11-19T10:38:18;96772.66;;;3.55;73.71
78206;BME280;67480;48.920;12.880;2023-11-19T10:40:44;96789.09;;;3.56;73.48
78206;BME280;67480;48.920;12.880;2023-11-19T10:43:09;96777.47;;;3.59;73.31
78206;BME280;67480;48.920;12.880;2023-11-19T10:45:36;96772.25;;;3.59;73.12
78206;BME280;67480;48.920;12.880;2023-11-19T10:48:06;96770.25;;;3.61;73.16
78206;BME280;67480;48.920;12.880;2023-11-19T10:50:38;96765.88;;;3.61;73.27
78206;BME280;67480;48.920;12.880;2023-11-19T10:53:07;96765.66;;;3.63;72.83
78206;BME280;67480;48.920;12.880;2023-11-19T10:55:35;96755.06;;;3.64;72.54
78206;BME280;67480;48.920;12.880;2023-11-19T10:58:04;96751.63;;;3.64;72.51
78206;BME280;67480;48.920;12.880;2023-11-19T11:00:36;96753.84;;;3.67;72.76
78206;BME280;67480;48.920;12.880;2023-11-19T11:03:09;96742.22;;;3.69;72.85
78206;BME280;67480;48.920;12.880;2023-11-19T11:05:37;96751.63;;;3.64;72.77
78206;BME280;67480;48.920;12.880;2023-11-19T11:08:06;96735.22;;;3.70;72.92
78206;BME280;67480;48.920;12.880;2023-11-19T11:10:32;96732.63;;;3.70;72.85
78206;BME280;67480;48.920;12.880;2023-11-19T11:13:03;96723.00;;;3.70;72.89
78206;BME280;67480;48.920;12.880;2023-11-19T11:15:30;96721.81;;;3.73;72.90
78206;BME280;67480;48.920;12.880;2023-11-19T11:18:00;96732.22;;;3.73;72.94
78206;BME280;67480;48.920;12.880;2023-11-19T11:20:30;96726.00;;;3.74;73.17
78206;BME280;67480;48.920;12.880;2023-11-19T11:28:46;96736.00;;;3.77;73.01
78206;BME280;67480;48.920;12.880;2023-11-19T11:37:26;96731.81;;;3.83;72.89
78206;BME280;67480;48.920;12.880;2023-11-19T11:39:53;96737.81;;;3.83;72.71
78206;BME280;67480;48.920;12.880;2023-11-19T11:45:07;96724.38;;;3.86;72.94
78206;BME280;67480;48.920;12.880;2023-11-19T11:50:22;96723.81;;;3.84;73.01
78206;BME280;67480;48.920;12.880;2023-11-19T11:58:13;96728.63;;;3.87;73.22
78206;BME280;67480;48.920;12.880;2023-11-19T12:00:41;96739.03;;;3.87;73.54
78206;BME280;67480;48.920;12.880;2023-11-19T12:03:08;96728.22;;;3.90;72.75
78206;BME280;67480;48.920;12.880;2023-11-19T12:05:38;96726.63;;;3.89;73.29
78206;BME280;67480;48.920;12.880;2023-11-19T12:08:06;96727.19;;;3.91;73.39
78206;BME280;67480;48.920;12.880;2023-11-19T12:10:45;96736.41;;;3.94;73.46
78206;BME280;67480;48.920;12.880;2023-11-19T12:13:13;96732.22;;;3.93;73.31
78206;BME280;67480;48.920;12.880;2023-11-19T12:18:32;96741.22;;;3.97;73.00
78206;BME280;67480;48.920;12.880;2023-11-19T12:20:58;96741.63;;;3.94;72.83
78206;BME280;67480;48.920;12.880;2023-11-19T12:23:29;96731.41;;;3.99;73.25
78206;BME280;67480;48.920;12.880;2023-11-19T12:25:55;96732.63;;;3.96;73.15
78206;BME280;67480;48.920;12.880;2023-11-19T12:28:21;96738.22;;;4.00;72.97
78206;BME280;67480;48.920;12.880;2023-11-19T12:30:47;96739.03;;;4.00;73.18
78206;BME280;67480;48.920;12.880;2023-11-19T12:33:13;96721.00;;;3.99;72.97
78206;BME280;67480;48.920;12.880;2023-11-19T12:35:43;96708.56;;;4.01;73.32
78206;BME280;67480;48.920;12.880;2023-11-19T12:38:23;96717.78;;;4.04;73.25
78206;BME280;67480;48.920;12.880;2023-11-19T12:41:14;96696.53;;;4.07;73.37
78206;BME280;67480;48.920;12.880;2023-11-19T12:43:43;96700.13;;;4.06;73.60
78206;BME280;67480;48.920;12.880;2023-11-19T12:46:29;96695.13;;;4.11;73.55
78206;BME280;67480;48.920;12.880;2023-11-19T12:48:54;96683.28;;;4.08;73.74
78206;BME280;67480;48.920;12.880;2023-11-19T12:51:20;96693.72;;;4.08;73.58
78206;BME280;67480;48.920;12.880;2023-11-19T12:53:50;96676.88;;;4.11;73.91
78206;BME280;67480;48.920;12.880;2023-11-19T12:56:17;96676.88;;;4.11;73.51
78206;BME280;67480;48.920;12.880;2023-11-19T12:58:43;96669.66;;;4.13;73.40
78206;BME280;67480;48.920;12.880;2023-11-19T13:01:09;96674.88;;;4.13;73.38
78206;BME280;67480;48.920;12.880;2023-11-19T13:03:38;96666.84;;;4.14;73.81
78206;BME280;67480;48.920;12.880;2023-11-19T13:06:12;96660.44;;;4.17;73.67
78206;BME280;67480;48.920;12.880;2023-11-19T13:08:42;96645.41;;;4.19;73.77
78206;BME280;67480;48.920;12.880;2023-11-19T13:11:10;96655.03;;;4.18;73.73
78206;BME280;67480;48.920;12.880;2023-11-19T13:13:58;96654.44;;;4.23;73.79
78206;BME280;67480;48.920;12.880;2023-11-19T13:16:29;96654.44;;;4.23;73.38
78206;BME280;67480;48.920;12.880;2023-11-19T13:18:54;96656.81;;;4.24;73.50
78206;BME280;67480;48.920;12.880;2023-11-19T13:21:20;96655.19;;;4.30;73.44
78206;BME280;67480;48.920;12.880;2023-11-19T13:23:45;96646.34;;;4.31;73.34
78206;BME280;67480;48.920;12.880;2023-11-19T13:26:11;96641.56;;;4.35;73.58
78206;BME280;67480;48.920;12.880;2023-11-19T13:28:37;96651.75;;;4.36;73.44
78206;BME280;67480;48.920;12.880;2023-11-19T13:31:03;96643.94;;;4.36;73.44
78206;BME280;67480;48.920;12.880;2023-11-19T13:33:29;96647.16;;;4.38;73.97
78206;BME280;67480;48.920;12.880;2023-11-19T13:35:57;96644.94;;;4.42;73.80
78206;BME280;67480;48.920;12.880;2023-11-19T13:38:22;96635.09;;;4.44;73.86
78206;BME280;67480;48.920;12.880;2023-11-19T13:40:49;96624.06;;;4.49;73.80
78206;BME280;67480;48.920;12.880;2023-11-19T13:43:14;96628.63;;;4.53;73.31
78206;BME280;67480;48.920;12.880;2023-11-19T13:45:40;96628.03;;;4.58;73.09
78206;BME280;67480;48.920;12.880;2023-11-19T13:48:05;96631.25;;;4.60;73.29
78206;BME280;67480;48.920;12.880;2023-11-19T13:50:31;96622.19;;;4.62;73.40
78206;BME280;67480;48.920;12.880;2023-11-19T13:52:57;96626.78;;;4.67;73.03
78206;BME280;67480;48.920;12.880;2023-11-19T13:55:22;96621.38;;;4.68;72.91
78206;BME280;67480;48.920;12.880;2023-11-19T13:57:48;96630.16;;;4.74;73.52
78206;BME280;67480;48.920;12.880;2023-11-19T14:00:14;96625.53;;;4.76;73.03
78206;BME280;67480;48.920;12.880;2023-11-19T14:02:47;96629.31;;;4.80;73.41
78206;BME280;67480;48.920;12.880;2023-11-19T14:05:14;96614.47;;;4.81;73.16
78206;BME280;67480;48.920;12.880;2023-11-19T14:07:40;96632.13;;;4.85;73.15
78206;BME280;67480;48.920;12.880;2023-11-19T14:10:07;96627.47;;;4.87;72.17
78206;BME280;67480;48.920;12.880;2023-11-19T14:12:39;96628.06;;;4.89;72.20
78206;BME280;67480;48.920;12.880;2023-11-19T14:15:09;96620.41;;;4.95;72.24
78206;BME280;67480;48.920;12.880;2023-11-19T14:17:35;96615.19;;;4.95;72.76
78206;BME280;67480;48.920;12.880;2023-11-19T14:20:01;96628.84;;;4.97;72.61
78206;BME280;67480;48.920;12.880;2023-11-19T14:22:26;96621.59;;;4.99;72.28
78206;BME280;67480;48.920;12.880;2023-11-19T14:24:52;96626.41;;;5.02;71.72
78206;BME280;67480;48.920;12.880;2023-11-19T14:27:17;96624.59;;;5.02;71.93
78206;BME280;67480;48.920;12.880;2023-11-19T14:29:44;96630.00;;;5.07;72.08
78206;BME280;67480;48.920;12.880;2023-11-19T14:32:12;96635.22;;;5.07;71.88
78206;BME280;67480;48.920;12.880;2023-11-19T14:34:38;96632.97;;;5.11;71.84
78206;BME280;67480;48.920;12.880;2023-11-19T14:37:03;96626.31;;;5.15;71.68
78206;BME280;67480;48.920;12.880;2023-11-19T14:39:29;96627.09;;;5.16;71.56
78206;BME280;67480;48.920;12.880;2023-11-19T14:41:57;96633.72;;;5.18;71.57
78206;BME280;67480;48.920;12.880;2023-11-19T14:44:26;96630.31;;;5.18;71.34
78206;BME280;67480;48.920;12.880;2023-11-19T14:46:51;96625.88;;;5.18;71.34
78206;BME280;67480;48.920;12.880;2023-11-19T14:49:16;96626.47;;;5.20;71.49
78206;BME280;67480;48.920;12.880;2023-11-19T14:51:42;96634.91;;;5.22;71.14
78206;BME280;67480;48.920;12.880;2023-11-19T14:54:07;96623.66;;;5.22;71.51
78206;BME280;67480;48.920;12.880;2023-11-19T14:56:32;96628.66;;;5.23;70.51
78206;BME280;67480;48.920;12.880;2023-11-19T14:58:58;96628.47;;;5.25;70.72
78206;BME280;67480;48.920;12.880;2023-11-19T15:01:24;96629.03;;;5.27;70.75
78206;BME280;67480;48.920;12.880;2023-11-19T15:03:50;96621.81;;;5.29;70.48
78206;BME280;67480;48.920;12.880;2023-11-19T15:06:15;96623.63;;;5.28;70.23
78206;BME280;67480;48.920;12.880;2023-11-19T15:08:41;96617.97;;;5.31;70.71
78206;BME280;67480;48.920;12.880;2023-11-19T15:11:07;96611.72;;;5.32;70.30
78206;BME280;67480;48.920;12.880;2023-11-19T15:13:34;96600.47;;;5.32;70.48
78206;BME280;67480;48.920;12.880;2023-11-19T15:16:01;96616.94;;;5.32;70.30
78206;BME280;67480;48.920;12.880;2023-11-19T15:18:27;96616.56;;;5.35;70.34
78206;BME280;67480;48.920;12.880;2023-11-19T15:20:53;96623.34;;;5.36;70.00
78206;BME280;67480;48.920;12.880;2023-11-19T15:23:18;96624.16;;;5.37;69.97
78206;BME280;67480;48.920;12.880;2023-11-19T15:25:44;96627.00;;;5.35;70.42
78206;BME280;67480;48.920;12.880;2023-11-19T15:28:10;96631.78;;;5.39;70.59
78206;BME280;67480;48.920;12.880;2023-11-19T15:30:35;96624.94;;;5.38;70.04
78206;BME280;67480;48.920;12.880;2023-11-19T15:33:00;96611.69;;;5.39;70.44
78206;BME280;67480;48.920;12.880;2023-11-19T15:35:26;96617.72;;;5.40;70.03
78206;BME280;67480;48.920;12.880;2023-11-19T15:37:51;96608.06;;;5.40;70.44
78206;BME280;67480;48.920;12.880;2023-11-19T15:40:17;96616.47;;;5.42;70.09
78206;BME280;67480;48.920;12.880;2023-11-19T15:42:43;96597.84;;;5.39;70.43
78206;BME280;67480;48.920;12.880;2023-11-19T15:45:10;96602.03;;;5.40;70.49
78206;BME280;67480;48.920;12.880;2023-11-19T15:47:37;96595.22;;;5.39;71.34
78206;BME280;67480;48.920;12.880;2023-11-19T15:50:03;96607.25;;;5.40;70.53
78206;BME280;67480;48.920;12.880;2023-11-19T15:52:29;96600.47;;;5.39;71.95
78206;BME280;67480;48.920;12.880;2023-11-19T15:54:56;96600.47;;;5.39;72.54
78206;BME280;67480;48.920;12.880;2023-11-19T15:57:21;96599.63;;;5.38;73.44
78206;BME280;67480;48.920;12.880;2023-11-19T15:59:47;96609.50;;;5.36;74.12
78206;BME280;67480;48.920;12.880;2023-11-19T16:02:13;96605.06;;;5.36;73.60
78206;BME280;67480;48.920;12.880;2023-11-19T16:04:38;96609.72;;;5.34;73.78
78206;BME280;67480;48.920;12.880;2023-11-19T16:07:04;96613.34;;;5.33;73.97
78206;BME280;67480;48.920;12.880;2023-11-19T16:09:30;96618.75;;;5.32;73.88
78206;BME280;67480;48.920;12.880;2023-11-19T16:11:56;96619.78;;;5.31;74.86
78206;BME280;67480;48.920;12.880;2023-11-19T16:14:21;96615.59;;;5.30;75.51
78206;BME280;67480;48.920;12.880;2023-11-19T16:16:47;96620.41;;;5.26;75.56
78206;BME280;67480;48.920;12.880;2023-11-19T16:19:12;96619.84;;;5.24;76.10
78206;BME280;67480;48.920;12.880;2023-11-19T16:21:37;96613.00;;;5.23;76.02
78206;BME280;67480;48.920;12.880;2023-11-19T16:24:03;96620.84;;;5.23;75.83
78206;BME280;67480;48.920;12.880;2023-11-19T16:26:30;96627.88;;;5.23;75.51
78206;BME280;67480;48.920;12.880;2023-11-19T16:28:57;96625.25;;;5.23;75.98
78206;BME280;67480;48.920;12.880;2023-11-19T16:31:23;96625.06;;;5.24;76.25
78206;BME280;67480;48.920;12.880;2023-11-19T16:33:49;96630.47;;;5.23;76.10
78206;BME280;67480;48.920;12.880;2023-11-19T16:36:14;96636.31;;;5.25;75.75
78206;BME280;67480;48.920;12.880;2023-11-19T16:38:40;96636.06;;;5.26;75.76
78206;BME280;67480;48.920;12.880;2023-11-19T16:41:05;96637.88;;;5.26;75.51
78206;BME280;67480;48.920;12.880;2023-11-19T16:43:31;96634.47;;;5.25;76.12
78206;BME280;67480;48.920;12.880;2023-11-19T16:45:56;96639.69;;;5.25;75.57
78206;BME280;67480;48.920;12.880;2023-11-19T16:48:22;96637.53;;;5.22;76.41
78206;BME280;67480;48.920;12.880;2023-11-19T16:50:47;96639.69;;;5.25;76.35
78206;BME280;67480;48.920;12.880;2023-11-19T16:53:15;96645.94;;;5.24;76.38
78206;BME280;67480;48.920;12.880;2023-11-19T16:55:40;96631.31;;;5.17;76.61
78206;BME280;67480;48.920;12.880;2023-11-19T16:58:05;96634.78;;;5.10;76.47
78206;BME280;67480;48.920;12.880;2023-11-19T17:00:30;96639.59;;;5.07;76.77
78206;BME280;67480;48.920;12.880;2023-11-19T17:02:56;96629.59;;;5.04;76.38
78206;BME280;67480;48.920;12.880;2023-11-19T17:05:24;96629.81;;;5.02;76.63
78206;BME280;67480;48.920;12.880;2023-11-19T17:07:49;96629.41;;;4.99;76.67
78206;BME280;67480;48.920;12.880;2023-11-19T17:10:15;96635.88;;;4.96;76.90
78206;BME280;67480;48.920;12.880;2023-11-19T17:12:41;96634.06;;;4.97;77.26
78206;BME280;67480;48.920;12.880;2023-11-19T17:15:06;96634.25;;;4.95;77.25
78206;BME280;67480;48.920;12.880;2023-11-19T17:17:35;96642.88;;;4.96;77.58
78206;BME280;67480;48.920;12.880;2023-11-19T17:20:05;96651.53;;;4.89;77.33
78206;BME280;67480;48.920;12.880;2023-11-19T17:22:36;96652.56;;;4.88;77.59
78206;BME280;67480;48.920;12.880;2023-11-19T17:25:03;96650.38;;;4.85;77.65
78206;BME280;67480;48.920;12.880;2023-11-19T17:27:32;96644.38;;;4.85;77.91
78206;BME280;67480;48.920;12.880;2023-11-19T17:29:58;96639.94;;;4.85;77.91
78206;BME280;67480;48.920;12.880;2023-11-19T17:32:24;96639.53;;;4.88;77.85
78206;BME280;67480;48.920;12.880;2023-11-19T17:34:50;96642.94;;;4.89;77.48
78206;BME280;67480;48.920;12.880;2023-11-19T17:37:16;96641.75;;;4.85;77.35
78206;BME280;67480;48.920;12.880;2023-11-19T17:39:43;96642.31;;;4.87;77.05
78206;BME280;67480;48.920;12.880;2023-11-19T17:42:09;96649.53;;;4.91;77.03
78206;BME280;67480;48.920;12.880;2023-11-19T17:44:34;96658.16;;;4.92;77.17
78206;BME280;67480;48.920;12.880;2023-11-19T17:47:00;96661.00;;;4.90;77.25
78206;BME280;67480;48.920;12.880;2023-11-19T17:49:26;96658.97;;;4.93;77.13
78206;BME280;67480;48.920;12.880;2023-11-19T17:51:52;96669.44;;;4.86;77.25
78206;BME280;67480;48.920;12.880;2023-11-19T17:54:18;96659.03;;;4.79;77.33
78206;BME280;67480;48.920;12.880;2023-11-19T17:56:44;96656.81;;;4.76;77.30
78206;BME280;67480;48.920;12.880;2023-11-19T17:59:09;96689.16;;;4.75;76.81
78206;BME280;67480;48.920;12.880;2023-11-19T18:01:34;96677.13;;;4.74;76.99
78206;BME280;67480;48.920;12.880;2023-11-19T18:04:01;96667.28;;;4.69;77.22
78206;BME280;67480;48.920;12.880;2023-11-19T18:06:26;96675.13;;;4.69;77.57
78206;BME280;67480;48.920;12.880;2023-11-19T18:08:52;96682.75;;;4.71;77.61
78206;BME280;67480;48.920;12.880;2023-11-19T18:11:17;96688.53;;;4.73;77.65
78206;BME280;67480;48.920;12.880;2023-11-19T18:13:45;96673.50;;;4.75;77.31
78206;BME280;67480;48.920;12.880;2023-11-19T18:16:11;96676.28;;;4.80;77.46
78206;BME280;67480;48.920;12.880;2023-11-19T18:18:38;96672.88;;;4.80;77.33
78206;BME280;67480;48.920;12.880;2023-11-19T18:21:04;96666.22;;;4.84;77.24
78206;BME280;67480;48.920;12.880;2023-11-19T18:23:29;96663.19;;;4.87;77.36
78206;BME280;67480;48.920;12.880;2023-11-19T18:25:55;96656.75;;;4.89;76.82
78206;BME280;67480;48.920;12.880;2023-11-19T18:28:22;96646.13;;;4.91;77.01
78206;BME280;67480;48.920;12.880;2023-11-19T18:30:49;96646.50;;;4.95;77.45
78206;BME280;67480;48.920;12.880;2023-11-19T18:33:15;96651.72;;;4.95;77.10
78206;BME280;67480;48.920;12.880;2023-11-19T18:35:40;96644.09;;;4.93;76.92
78206;BME280;67480;48.920;12.880;2023-11-19T18:38:05;96626.06;;;4.91;77.49